createdAt,value
2023-01-19T00:00:28.720Z,97898.78
2023-01-19T00:02:55.511Z,97896.47
2023-01-19T00:05:22.223Z,97890.78
2023-01-19T00:07:48.906Z,97904.22
2023-01-19T00:10:15.731Z,97895.94
2023-01-19T00:12:42.299Z,97889.22
2023-01-19T00:15:09.431Z,97895.06
2023-01-19T00:17:36.075Z,97889.53
2023-01-19T00:20:03.943Z,97909.38
2023-01-19T00:22:30.501Z,97893.31
2023-01-19T00:24:57.045Z,97903.22
2023-01-19T00:27:23.559Z,97917.88
2023-01-19T00:29:50.065Z,97895.50
2023-01-19T00:32:17.908Z,97906.38
2023-01-19T00:34:49.487Z,97906.63
2023-01-19T00:37:17.386Z,97902.22
2023-01-19T00:39:45.143Z,97909.13
2023-01-19T00:42:31.649Z,97907.81
2023-01-19T00:44:58.346Z,97910.78
2023-01-19T00:47:25.419Z,97906.03
2023-01-19T00:49:52.050Z,97911.53
2023-01-19T00:52:18.863Z,97918.19
2023-01-19T00:54:45.452Z,97923.44
2023-01-19T00:57:12.721Z,97928.75
2023-01-19T00:59:39.276Z,97927.19
2023-01-19T01:02:05.962Z,97925.97
2023-01-19T01:04:32.627Z,97918.81
2023-01-19T01:06:59.165Z,97922.56
2023-01-19T01:09:25.957Z,97939.66
2023-01-19T01:11:52.509Z,97939.22
2023-01-19T01:14:19.440Z,97934.47
2023-01-19T01:16:46.076Z,97946.94
2023-01-19T01:19:12.683Z,97922.63
2023-01-19T01:21:39.256Z,97921.81
2023-01-19T01:24:06.445Z,97935.63
2023-01-19T01:26:33.051Z,97927.03
2023-01-19T01:28:59.629Z,97937.00
2023-01-19T01:31:26.325Z,97940.06
2023-01-19T01:33:52.919Z,97931.59
2023-01-19T01:36:19.489Z,97934.06
2023-01-19T01:38:46.319Z,97948.97
2023-01-19T01:41:12.875Z,97939.69
2023-01-19T01:43:54.115Z,97953.41
2023-01-19T01:46:20.922Z,97950.56
2023-01-19T01:49:14.662Z,97939.59
2023-01-19T01:51:46.884Z,97944.22
2023-01-19T01:54:23.041Z,97949.75
2023-01-19T01:56:52.783Z,97943.19
2023-01-19T01:59:39.406Z,97958.44
2023-01-19T02:02:30.048Z,97954.59
2023-01-19T02:05:04.073Z,97963.88
2023-01-19T02:08:01.768Z,97970.91
2023-01-19T02:10:46.844Z,97958.00
2023-01-19T02:13:23.031Z,97955.03
2023-01-19T02:15:55.024Z,97952.31
2023-01-19T02:18:24.233Z,97962.63
2023-01-19T02:20:58.116Z,97967.50
2023-01-19T02:23:32.470Z,97971.38
2023-01-19T02:26:00.769Z,97968.75
2023-01-19T02:28:28.432Z,97970.78
2023-01-19T02:30:55.274Z,97961.16
2023-01-19T02:33:22.111Z,97948.69
2023-01-19T02:35:51.829Z,97955.03
2023-01-19T02:38:20.759Z,97953.44
2023-01-19T02:40:48.697Z,97954.13
2023-01-19T02:43:17.820Z,97951.09
2023-01-19T02:45:44.623Z,97933.75
2023-01-19T02:48:11.381Z,97938.84
2023-01-19T02:50:41.998Z,97939.19
2023-01-19T02:53:30.477Z,97948.94
2023-01-19T02:56:19.163Z,97946.53
2023-01-19T02:59:13.391Z,97942.69
2023-01-19T03:01:55.931Z,97950.25
2023-01-19T03:04:40.757Z,97966.22
2023-01-19T03:07:30.660Z,97952.78
2023-01-19T03:10:12.866Z,97970.50
2023-01-19T03:12:52.757Z,97972.19
2023-01-19T03:15:26.047Z,97975.69
2023-01-19T03:17:53.910Z,97979.66
2023-01-19T03:20:25.433Z,97974.91
2023-01-19T03:23:00.632Z,97980.34
2023-01-19T03:25:31.332Z,97986.94
2023-01-19T03:27:58.159Z,97991.44
2023-01-19T03:30:31.003Z,97981.56
2023-01-19T03:33:03.397Z,97984.41
2023-01-19T03:35:34.972Z,97988.16
2023-01-19T03:38:06.664Z,97985.69
2023-01-19T03:40:35.334Z,97997.13
2023-01-19T03:43:03.620Z,97997.25
2023-01-19T03:45:35.610Z,97995.66
2023-01-19T03:48:02.864Z,97992.59
2023-01-19T03:50:30.906Z,97990.13
2023-01-19T03:53:10.432Z,97983.53
2023-01-19T03:55:39.591Z,97971.53
2023-01-19T03:58:06.471Z,97974.50
2023-01-19T04:00:33.932Z,97989.22
2023-01-19T04:03:00.862Z,97975.63
2023-01-19T04:05:27.667Z,97974.50
2023-01-19T04:07:54.671Z,97981.06
2023-01-19T04:10:21.437Z,97980.63
2023-01-19T04:12:48.749Z,97972.91
2023-01-19T04:15:16.017Z,97971.34
2023-01-19T04:17:42.509Z,97961.03
2023-01-19T04:20:09.679Z,97960.72
2023-01-19T04:22:36.434Z,97965.72
2023-01-19T04:25:03.389Z,97981.28
2023-01-19T04:27:29.986Z,97974.31
2023-01-19T04:29:56.792Z,97976.13
2023-01-19T04:32:23.356Z,97984.28
2023-01-19T04:34:49.887Z,97984.97
2023-01-19T04:37:16.393Z,97979.63
2023-01-19T04:39:43.376Z,97990.63
2023-01-19T04:42:10.062Z,97989.38
2023-01-19T04:44:36.598Z,97988.16
2023-01-19T04:47:03.466Z,97984.75
2023-01-19T04:49:30.235Z,97973.09
2023-01-19T04:51:56.829Z,97992.53
2023-01-19T04:54:23.518Z,97982.03
2023-01-19T04:56:50.179Z,97997.19
2023-01-19T04:59:16.778Z,97984.03
2023-01-19T05:01:43.365Z,97977.84
2023-01-19T05:04:09.934Z,97972.97
2023-01-19T05:06:37.304Z,97988.47
2023-01-19T05:09:04.523Z,97985.97
2023-01-19T05:11:31.045Z,97993.47
2023-01-19T05:13:57.608Z,97999.00
2023-01-19T05:16:24.223Z,97997.75
2023-01-19T05:18:50.985Z,98002.28
2023-01-19T05:21:17.619Z,98001.72
2023-01-19T05:23:44.741Z,98008.50
2023-01-19T05:26:11.345Z,98001.38
2023-01-19T05:28:38.136Z,98003.53
2023-01-19T05:31:04.903Z,98007.03
2023-01-19T05:33:31.810Z,98007.16
2023-01-19T05:35:58.373Z,98001.50
2023-01-19T05:38:34.618Z,98002.75
2023-01-19T05:41:01.876Z,97986.09
2023-01-19T05:43:28.444Z,97993.00
2023-01-19T05:45:55.027Z,97996.75
2023-01-19T05:48:21.540Z,97974.22
2023-01-19T05:50:49.622Z,97991.53
2023-01-19T05:53:17.203Z,98018.69
2023-01-19T05:55:43.724Z,98013.25
2023-01-19T05:58:10.338Z,98019.94
2023-01-19T06:00:36.960Z,98026.25
2023-01-19T06:03:04.169Z,98035.78
2023-01-19T06:05:31.007Z,98018.91
2023-01-19T06:07:57.758Z,98043.13
2023-01-19T06:10:24.352Z,98051.28
2023-01-19T06:12:52.570Z,98036.34
2023-01-19T06:15:19.541Z,98037.47
2023-01-19T06:17:46.261Z,98034.75
2023-01-19T06:20:14.184Z,98018.47
2023-01-19T06:22:40.717Z,98020.38
2023-01-19T06:25:07.549Z,97998.56
2023-01-19T06:27:34.131Z,98003.41
2023-01-19T06:30:00.812Z,98000.47
2023-01-19T06:32:27.384Z,98009.66
2023-01-19T06:34:54.198Z,98004.66
2023-01-19T06:37:21.119Z,97979.06
2023-01-19T06:39:47.679Z,97986.78
2023-01-19T06:42:14.416Z,97998.78
2023-01-19T06:44:47.296Z,98015.53
2023-01-19T06:47:16.392Z,98043.56
2023-01-19T06:49:43.409Z,98055.25
2023-01-19T06:52:11.481Z,98057.06
2023-01-19T06:54:38.263Z,98065.97
2023-01-19T06:57:04.976Z,98057.16
2023-01-19T06:59:31.900Z,98056.72
2023-01-19T07:01:59.140Z,98050.84
2023-01-19T07:04:26.976Z,98068.38
2023-01-19T07:06:53.544Z,98069.50
2023-01-19T07:09:20.488Z,98076.06
2023-01-19T07:11:48.431Z,98085.22
2023-01-19T07:14:15.570Z,98054.78
2023-01-19T07:16:42.419Z,98080.25
2023-01-19T07:19:10.808Z,98076.28
2023-01-19T07:21:37.702Z,98060.56
2023-01-19T07:24:04.334Z,98077.53
2023-01-19T07:26:30.956Z,98081.50
2023-01-19T07:28:57.569Z,98052.50
2023-01-19T07:31:24.152Z,98053.41
2023-01-19T07:33:50.834Z,98069.16
2023-01-19T07:36:17.452Z,98082.50
2023-01-19T07:38:44.179Z,98068.72
2023-01-19T07:41:10.877Z,98068.94
2023-01-19T07:43:37.596Z,98076.72
2023-01-19T07:46:06.572Z,98076.50
2023-01-19T07:48:33.442Z,98082.28
2023-01-19T07:51:04.323Z,98104.91
2023-01-19T07:53:31.645Z,98109.44
2023-01-19T07:55:58.322Z,98129.59
2023-01-19T07:58:26.605Z,98126.28
2023-01-19T08:00:53.560Z,98111.38
2023-01-19T08:03:20.446Z,98110.81
2023-01-19T08:05:51.605Z,98120.09
2023-01-19T08:08:18.664Z,98121.34
2023-01-19T08:10:45.288Z,98111.47
2023-01-19T08:13:12.146Z,98113.63
2023-01-19T08:15:38.663Z,98098.56
2023-01-19T08:18:05.843Z,98108.78
2023-01-19T08:20:32.636Z,98108.53
2023-01-19T08:23:03.099Z,98104.22
2023-01-19T08:25:37.897Z,98101.16
2023-01-19T08:28:06.488Z,98101.84
2023-01-19T08:30:33.435Z,98107.75
2023-01-19T08:33:08.249Z,98106.47
2023-01-19T08:35:43.301Z,98098.31
2023-01-19T08:38:10.652Z,98112.69
2023-01-19T08:40:40.287Z,98086.06
2023-01-19T08:43:09.498Z,98104.19
2023-01-19T08:45:38.060Z,98099.19
2023-01-19T08:48:06.249Z,98109.53
2023-01-19T08:50:34.067Z,98108.50
2023-01-19T08:53:02.835Z,98097.03
2023-01-19T08:55:30.154Z,98104.16
2023-01-19T08:57:58.171Z,98120.25
2023-01-19T09:00:25.463Z,98097.81
2023-01-19T09:02:52.260Z,98113.00
2023-01-19T09:05:19.569Z,98116.63
2023-01-19T09:07:48.148Z,98121.28
2023-01-19T09:10:16.054Z,98130.44
2023-01-19T09:12:43.930Z,98119.47
2023-01-19T09:15:13.940Z,98132.03
2023-01-19T09:17:43.815Z,98117.41
2023-01-19T09:20:10.897Z,98120.94
2023-01-19T09:22:38.608Z,98121.06
2023-01-19T09:25:07.334Z,98126.84
2023-01-19T09:27:34.851Z,98121.13
2023-01-19T09:30:01.510Z,98124.50
2023-01-19T09:32:28.038Z,98128.63
2023-01-19T09:34:56.541Z,98137.66
2023-01-19T09:37:23.069Z,98133.94
2023-01-19T09:39:49.637Z,98136.78
2023-01-19T09:42:36.011Z,98138.00
2023-01-19T09:45:07.081Z,98137.66
2023-01-19T09:47:36.665Z,98135.13
2023-01-19T09:50:07.586Z,98149.53
2023-01-19T09:52:39.604Z,98131.97
2023-01-19T09:55:30.371Z,98145.28
2023-01-19T09:57:56.967Z,98140.09
2023-01-19T10:00:25.698Z,98140.22
2023-01-19T10:02:59.464Z,98130.91
2023-01-19T10:05:31.930Z,98128.63
2023-01-19T10:08:20.013Z,98125.69
2023-01-19T10:10:52.530Z,98133.34
2023-01-19T10:13:28.931Z,98157.34
2023-01-19T10:16:01.367Z,98146.41
2023-01-19T10:18:43.260Z,98141.97
2023-01-19T10:21:16.330Z,98146.19
2023-01-19T10:23:52.316Z,98133.41
2023-01-19T10:26:26.945Z,98154.38
2023-01-19T10:28:57.775Z,98141.41
2023-01-19T10:31:25.143Z,98143.44
2023-01-19T10:33:52.674Z,98132.84
2023-01-19T10:36:26.079Z,98146.03
2023-01-19T10:38:52.655Z,98151.91
2023-01-19T10:41:26.077Z,98160.25
2023-01-19T10:44:03.435Z,98171.13
2023-01-19T10:46:47.236Z,98165.22
2023-01-19T10:49:45.977Z,98151.94
2023-01-19T10:52:33.127Z,98168.00
2023-01-19T10:55:01.976Z,98147.59
2023-01-19T10:57:34.523Z,98171.41
2023-01-19T11:00:01.162Z,98157.97
2023-01-19T11:02:30.335Z,98162.00
2023-01-19T11:04:59.532Z,98171.00
2023-01-19T11:07:25.981Z,98160.41
2023-01-19T11:10:11.691Z,98170.38
2023-01-19T11:12:43.571Z,98170.09
2023-01-19T11:15:16.095Z,98171.19
2023-01-19T11:17:48.189Z,98176.81
2023-01-19T11:20:24.216Z,98172.09
2023-01-19T11:23:06.193Z,98168.13
2023-01-19T11:25:35.586Z,98181.13
2023-01-19T11:28:03.270Z,98193.94
2023-01-19T11:30:30.504Z,98187.13
2023-01-19T11:32:57.015Z,98186.75
2023-01-19T11:35:39.417Z,98184.78
2023-01-19T11:38:27.566Z,98191.94
2023-01-19T11:40:59.728Z,98171.03
2023-01-19T11:43:43.550Z,98191.47
2023-01-19T11:46:16.500Z,98188.78
2023-01-19T11:48:49.905Z,98191.28
2023-01-19T11:51:22.142Z,98202.44
2023-01-19T11:53:52.442Z,98187.22
2023-01-19T11:56:23.731Z,98184.16
2023-01-19T11:58:50.316Z,98184.03
2023-01-19T12:01:27.806Z,98184.25
2023-01-19T12:04:10.033Z,98172.78
2023-01-19T12:06:42.892Z,98184.03
2023-01-19T12:09:22.311Z,98191.44
2023-01-19T12:12:13.527Z,98188.22
2023-01-19T12:15:05.416Z,98206.06
2023-01-19T12:17:36.769Z,98202.44
2023-01-19T12:20:37.181Z,98199.00
2023-01-19T12:23:17.662Z,98197.56
2023-01-19T12:25:59.690Z,98209.22
2023-01-19T12:28:32.814Z,98193.63
2023-01-19T12:31:01.303Z,98209.03
2023-01-19T12:33:37.573Z,98199.41
2023-01-19T12:36:38.668Z,98213.47
2023-01-19T12:39:21.346Z,98221.31
2023-01-19T12:41:51.186Z,98216.56
2023-01-19T12:44:24.056Z,98216.19
2023-01-19T12:47:06.419Z,98230.94
2023-01-19T12:49:38.737Z,98217.00
2023-01-19T12:52:20.123Z,98225.59
2023-01-19T12:54:59.802Z,98225.25
2023-01-19T12:57:34.803Z,98230.38
2023-01-19T13:00:30.083Z,98228.31
2023-01-19T13:02:57.784Z,98232.28
2023-01-19T13:05:39.352Z,98224.59
2023-01-19T13:08:06.270Z,98239.66
2023-01-19T13:10:51.313Z,98241.94
2023-01-19T13:13:24.383Z,98241.34
2023-01-19T13:15:54.191Z,98247.13
2023-01-19T13:18:25.271Z,98259.94
2023-01-19T13:21:03.514Z,98263.00
2023-01-19T13:23:49.939Z,98271.75
2023-01-19T13:26:19.469Z,98263.47
2023-01-19T13:28:50.064Z,98278.28
2023-01-19T13:31:17.974Z,98282.72
2023-01-19T13:33:56.291Z,98279.09
2023-01-19T13:36:32.543Z,98292.69
2023-01-19T13:39:03.583Z,98286.81
2023-01-19T13:41:35.472Z,98298.13
2023-01-19T13:44:07.244Z,98301.06
2023-01-19T13:46:34.714Z,98294.16
2023-01-19T13:49:22.482Z,98304.22
2023-01-19T13:52:17.258Z,98304.22
2023-01-19T13:54:51.260Z,98321.66
2023-01-19T13:57:26.546Z,98314.09
2023-01-19T14:00:14.167Z,98325.53
2023-01-19T14:03:09.532Z,98320.88
2023-01-19T14:05:39.084Z,98328.13
2023-01-19T14:08:08.770Z,98330.25
2023-01-19T14:10:38.750Z,98325.53
2023-01-19T14:13:16.954Z,98329.94
2023-01-19T14:15:44.471Z,98326.19
2023-01-19T14:18:14.005Z,98326.88
2023-01-19T14:20:41.307Z,98335.81
2023-01-19T14:23:41.901Z,98338.19
2023-01-19T14:26:45.061Z,98333.69
2023-01-19T14:29:33.108Z,98335.94
2023-01-19T14:32:13.775Z,98329.94
2023-01-19T14:34:41.249Z,98335.13
2023-01-19T14:37:20.980Z,98332.75
2023-01-19T14:40:14.815Z,98331.16
2023-01-19T14:43:03.067Z,98333.16
2023-01-19T14:45:39.300Z,98344.25
2023-01-19T14:48:18.046Z,98334.03
2023-01-19T14:50:57.653Z,98337.25
2023-01-19T14:53:30.079Z,98334.03
2023-01-19T14:56:00.574Z,98326.44
2023-01-19T14:58:31.294Z,98318.28
2023-01-19T15:00:58.217Z,98329.16
2023-01-19T15:03:35.020Z,98341.03
2023-01-19T15:06:19.335Z,98330.63
2023-01-19T15:08:47.174Z,98353.97
2023-01-19T15:11:22.726Z,98351.44
2023-01-19T15:13:49.947Z,98355.94
2023-01-19T15:16:16.834Z,98363.84
2023-01-19T15:18:43.445Z,98391.81
2023-01-19T15:21:19.995Z,98376.31
2023-01-19T15:23:47.587Z,98385.56
2023-01-19T15:26:17.836Z,98394.16
2023-01-19T15:28:45.469Z,98388.44
2023-01-19T15:31:16.493Z,98396.78
2023-01-19T15:33:43.421Z,98388.03
2023-01-19T15:36:18.649Z,98394.91
2023-01-19T15:38:46.196Z,98403.41
2023-01-19T15:41:14.423Z,98408.53
2023-01-19T15:43:41.000Z,98415.31
2023-01-19T15:46:07.903Z,98404.31
2023-01-19T15:48:34.536Z,98416.63
2023-01-19T15:51:01.088Z,98411.19
2023-01-19T15:53:27.863Z,98401.94
2023-01-19T15:55:56.865Z,98419.22
2023-01-19T15:58:24.651Z,98423.38
2023-01-19T16:00:56.463Z,98427.66
2023-01-19T16:03:24.540Z,98428.34
2023-01-19T16:05:51.342Z,98437.16
2023-01-19T16:08:18.344Z,98447.66
2023-01-19T16:10:44.935Z,98444.94
2023-01-19T16:13:11.906Z,98438.06
2023-01-19T16:15:39.794Z,98450.72
2023-01-19T16:18:06.356Z,98442.88
2023-01-19T16:20:32.945Z,98432.91
2023-01-19T16:23:13.871Z,98454.28
2023-01-19T16:25:41.390Z,98452.47
2023-01-19T16:28:08.435Z,98445.66
2023-01-19T16:30:35.085Z,98452.66
2023-01-19T16:33:01.715Z,98461.94
2023-01-19T16:35:28.244Z,98462.41
2023-01-19T16:37:54.765Z,98473.41
2023-01-19T16:40:21.419Z,98480.94
2023-01-19T16:42:48.047Z,98476.81
2023-01-19T16:45:14.754Z,98487.81
2023-01-19T16:47:41.362Z,98506.47
2023-01-19T16:50:11.701Z,98481.44
2023-01-19T16:52:38.731Z,98487.19
2023-01-19T16:55:09.318Z,98481.94
2023-01-19T16:57:38.848Z,98476.88
2023-01-19T17:00:09.391Z,98474.47
2023-01-19T17:02:36.357Z,98476.25
2023-01-19T17:05:02.942Z,98473.53
2023-01-19T17:07:29.494Z,98482.16
2023-01-19T17:09:56.241Z,98494.66
2023-01-19T17:12:22.816Z,98483.97
2023-01-19T17:14:49.339Z,98483.81
2023-01-19T17:17:15.927Z,98485.59
2023-01-19T17:19:42.494Z,98491.97
2023-01-19T17:22:09.168Z,98496.75
2023-01-19T17:24:35.725Z,98494.22
2023-01-19T17:27:02.317Z,98496.16
2023-01-19T17:29:28.919Z,98494.72
2023-01-19T17:31:55.467Z,98512.72
2023-01-19T17:34:22.021Z,98508.91
2023-01-19T17:36:51.342Z,98512.41
2023-01-19T17:39:18.605Z,98518.94
2023-01-19T17:41:45.248Z,98519.59
2023-01-19T17:44:11.843Z,98518.66
2023-01-19T17:46:38.639Z,98509.25
2023-01-19T17:49:07.196Z,98507.00
2023-01-19T17:51:34.479Z,98514.50
2023-01-19T17:54:01.225Z,98525.34
2023-01-19T17:56:30.317Z,98518.50
2023-01-19T17:58:58.110Z,98513.88
2023-01-19T18:01:30.100Z,98508.94
2023-01-19T18:03:57.847Z,98513.88
2023-01-19T18:06:25.032Z,98516.59
2023-01-19T18:08:52.523Z,98522.66
2023-01-19T18:11:20.436Z,98522.66
2023-01-19T18:13:49.069Z,98531.44
2023-01-19T18:16:21.780Z,98532.53
2023-01-19T18:18:49.726Z,98525.03
2023-01-19T18:21:17.616Z,98530.16
2023-01-19T18:23:45.149Z,98500.81
2023-01-19T18:26:17.300Z,98501.94
2023-01-19T18:28:43.881Z,98490.78
2023-01-19T18:31:14.539Z,98494.28
2023-01-19T18:33:41.553Z,98490.16
2023-01-19T18:36:08.775Z,98501.78
2023-01-19T18:38:35.937Z,98509.56
2023-01-19T18:41:08.721Z,98488.34
2023-01-19T18:43:35.420Z,98511.50
2023-01-19T18:46:02.247Z,98518.03
2023-01-19T18:48:28.878Z,98536.66
2023-01-19T18:50:55.856Z,98543.38
2023-01-19T18:53:22.960Z,98550.38
2023-01-19T18:55:53.993Z,98555.78
2023-01-19T18:58:21.007Z,98565.84
2023-01-19T19:00:48.131Z,98547.19
2023-01-19T19:03:14.818Z,98547.50
2023-01-19T19:05:41.436Z,98548.47
2023-01-19T19:08:08.672Z,98564.22
2023-01-19T19:10:35.270Z,98574.91
2023-01-19T19:13:02.301Z,98595.66
2023-01-19T19:15:28.961Z,98590.22
2023-01-19T19:17:55.582Z,98600.25
2023-01-19T19:20:23.415Z,98599.97
2023-01-19T19:22:51.713Z,98585.94
2023-01-19T19:25:18.458Z,98587.38
2023-01-19T19:27:47.819Z,98584.50
2023-01-19T19:30:15.023Z,98579.41
2023-01-19T19:32:41.939Z,98570.78
2023-01-19T19:35:08.948Z,98575.25
2023-01-19T19:37:35.469Z,98573.34
2023-01-19T19:40:01.973Z,98564.56
2023-01-19T19:42:30.141Z,98562.78
2023-01-19T19:44:56.720Z,98545.44
2023-01-19T19:47:24.503Z,98557.06
2023-01-19T19:49:51.117Z,98550.84
2023-01-19T19:52:17.760Z,98556.56
2023-01-19T19:54:45.112Z,98555.28
2023-01-19T19:57:11.665Z,98559.91
2023-01-19T19:59:38.247Z,98546.66
2023-01-19T20:02:05.031Z,98552.09
2023-01-19T20:04:31.659Z,98542.06
2023-01-19T20:07:00.105Z,98550.03
2023-01-19T20:09:26.847Z,98545.91
2023-01-19T20:11:53.465Z,98549.88
2023-01-19T20:14:21.156Z,98546.66
2023-01-19T20:16:47.814Z,98548.75
2023-01-19T20:19:14.432Z,98546.84
2023-01-19T20:21:41.965Z,98549.88
2023-01-19T20:24:13.937Z,98557.19
2023-01-19T20:26:44.217Z,98560.22
2023-01-19T20:29:11.447Z,98571.50
2023-01-19T20:31:45.965Z,98574.84
2023-01-19T20:34:14.901Z,98572.13
2023-01-19T20:36:42.305Z,98584.72
2023-01-19T20:39:10.994Z,98579.91
2023-01-19T20:41:43.555Z,98584.81
2023-01-19T20:44:12.591Z,98591.03
2023-01-19T20:46:39.474Z,98587.84
2023-01-19T20:49:06.493Z,98597.09
2023-01-19T20:51:34.987Z,98614.91
2023-01-19T20:54:01.568Z,98619.44
2023-01-19T20:56:28.132Z,98617.53
2023-01-19T20:58:54.690Z,98619.47
2023-01-19T21:01:24.229Z,98631.88
2023-01-19T21:03:51.795Z,98628.56
2023-01-19T21:06:19.861Z,98641.75
2023-01-19T21:08:47.087Z,98635.38
2023-01-19T21:11:13.589Z,98640.94
2023-01-19T21:13:40.139Z,98654.16
2023-01-19T21:16:07.194Z,98651.94
2023-01-19T21:18:33.801Z,98658.63
2023-01-19T21:21:00.345Z,98668.16
2023-01-19T21:23:27.837Z,98663.22
2023-01-19T21:25:57.571Z,98665.06
2023-01-19T21:28:24.866Z,98660.66
2023-01-19T21:30:53.300Z,98659.53
2023-01-19T21:33:21.286Z,98663.69
2023-01-19T21:35:56.018Z,98662.09
2023-01-19T21:38:24.733Z,98656.69
2023-01-19T21:40:51.319Z,98658.41
2023-01-19T21:43:20.045Z,98657.31
2023-01-19T21:45:48.530Z,98662.91
2023-01-19T21:48:16.097Z,98674.66
2023-01-19T21:50:42.826Z,98674.66
2023-01-19T21:53:11.323Z,98687.09
2023-01-19T21:55:39.703Z,98694.44
2023-01-19T21:58:06.246Z,98698.06
2023-01-19T22:00:32.856Z,98693.25
2023-01-19T22:03:04.282Z,98707.34
2023-01-19T22:05:36.730Z,98699.78
2023-01-19T22:08:04.464Z,98707.09
2023-01-19T22:10:30.977Z,98705.78
2023-01-19T22:12:57.606Z,98705.22
2023-01-19T22:15:24.174Z,98691.81
2023-01-19T22:17:50.675Z,98684.63
2023-01-19T22:20:17.431Z,98687.13
2023-01-19T22:22:43.994Z,98670.78
2023-01-19T22:25:10.655Z,98682.47
2023-01-19T22:27:38.722Z,98674.66
2023-01-19T22:30:05.927Z,98672.59
2023-01-19T22:32:32.577Z,98666.78
2023-01-19T22:34:59.343Z,98664.22
2023-01-19T22:37:25.853Z,98668.66
2023-01-19T22:39:53.123Z,98672.41
2023-01-19T22:42:19.668Z,98673.50
2023-01-19T22:44:46.936Z,98677.06
2023-01-19T22:47:13.453Z,98685.34
2023-01-19T22:49:40.730Z,98675.09
2023-01-19T22:52:07.624Z,98675.44
2023-01-19T22:54:34.217Z,98668.59
2023-01-19T22:57:00.832Z,98662.28
2023-01-19T22:59:27.411Z,98670.00
2023-01-19T23:01:54.085Z,98664.03
2023-01-19T23:04:20.928Z,98663.44
2023-01-19T23:06:50.424Z,98666.31
2023-01-19T23:09:18.073Z,98666.31
2023-01-19T23:11:51.225Z,98655.06
2023-01-19T23:14:20.763Z,98649.25
2023-01-19T23:16:47.487Z,98640.94
2023-01-19T23:19:14.469Z,98647.47
2023-01-19T23:21:41.504Z,98641.78
2023-01-19T23:24:08.509Z,98658.78
2023-01-19T23:26:38.365Z,98663.97
2023-01-19T23:29:08.455Z,98657.63
2023-01-19T23:31:37.173Z,98670.41
2023-01-19T23:34:06.358Z,98658.03
2023-01-19T23:36:36.075Z,98665.13
2023-01-19T23:39:09.933Z,98668.09
2023-01-19T23:41:36.408Z,98662.63
2023-01-19T23:44:03.549Z,98656.19
2023-01-19T23:46:30.199Z,98662.94
2023-01-19T23:48:57.759Z,98662.56
2023-01-19T23:51:27.664Z,98672.53
2023-01-19T23:53:54.774Z,98666.50
2023-01-19T23:56:22.689Z,98668.53
2023-01-19T23:58:54.615Z,98668.47
